sensor_id;sensor_type;location;lat;lon;timestamp;pressure;altitude;pressure_sealevel;temperature;humidity
47716;BME280;33476;50.984;3.538;2022-10-16T00:01:15;101021.97;;;17.10;63.09
47716;BME280;33476;50.984;3.538;2022-10-16T00:03:43;101019.97;;;17.14;62.91
47716;BME280;33476;50.984;3.538;2022-10-16T00:06:09;101018.16;;;17.15;62.84
47716;BME280;33476;50.984;3.538;2022-10-16T00:08:36;101025.31;;;17.12;62.93
47716;BME280;33476;50.984;3.538;2022-10-16T00:11:14;101012.78;;;17.03;63.33
47716;BME280;33476;50.984;3.538;2022-10-16T00:13:41;101020.28;;;17.09;63.08
47716;BME280;33476;50.984;3.538;2022-10-16T00:16:08;101027.25;;;17.10;63.15
47716;BME280;33476;50.984;3.538;2022-10-16T00:18:34;101024.19;;;17.04;63.24
47716;BME280;33476;50.984;3.538;2022-10-16T00:21:04;101022.75;;;17.00;63.39
47716;BME280;33476;50.984;3.538;2022-10-16T00:23:30;101022.50;;;17.03;63.54
47716;BME280;33476;50.984;3.538;2022-10-16T00:26:02;101015.38;;;16.92;64.03
47716;BME280;33476;50.984;3.538;2022-10-16T00:28:28;101022.34;;;16.93;63.84
47716;BME280;33476;50.984;3.538;2022-10-16T00:30:53;101012.13;;;16.89;64.11
47716;BME280;33476;50.984;3.538;2022-10-16T00:33:19;101023.53;;;16.89;64.26
47716;BME280;33476;50.984;3.538;2022-10-16T00:35:45;101023.72;;;16.86;64.35
47716;BME280;33476;50.984;3.538;2022-10-16T00:38:11;101013.41;;;16.83;64.66
47716;BME280;33476;50.984;3.538;2022-10-16T00:40:36;101019.63;;;16.82;64.70
47716;BME280;33476;50.984;3.538;2022-10-16T00:43:02;101022.88;;;16.85;64.56
47716;BME280;33476;50.984;3.538;2022-10-16T00:45:28;101028.03;;;16.87;64.69
47716;BME280;33476;50.984;3.538;2022-10-16T00:47:55;101026.47;;;16.84;64.81
47716;BME280;33476;50.984;3.538;2022-10-16T00:52:48;101035.94;;;16.87;64.76
47716;BME280;33476;50.984;3.538;2022-10-16T00:55:16;101027.97;;;16.89;64.81
47716;BME280;33476;50.984;3.538;2022-10-16T00:57:42;101032.59;;;16.85;65.19
47716;BME280;33476;50.984;3.538;2022-10-16T01:00:11;101031.22;;;16.79;65.47
47716;BME280;33476;50.984;3.538;2022-10-16T01:02:37;101032.09;;;16.80;65.60
47716;BME280;33476;50.984;3.538;2022-10-16T01:05:04;101033.78;;;16.81;65.56
47716;BME280;33476;50.984;3.538;2022-10-16T01:12:57;101018.38;;;16.75;65.63
47716;BME280;33476;50.984;3.538;2022-10-16T01:15:59;101028.28;;;16.71;65.97
47716;BME280;33476;50.984;3.538;2022-10-16T01:18:35;101035.34;;;16.71;65.97
47716;BME280;33476;50.984;3.538;2022-10-16T01:21:08;101037.13;;;16.70;66.05
47716;BME280;33476;50.984;3.538;2022-10-16T01:26:42;101037.13;;;16.70;66.21
47716;BME280;33476;50.984;3.538;2022-10-16T01:31:52;101034.09;;;16.64;66.60
47716;BME280;33476;50.984;3.538;2022-10-16T01:34:49;101036.28;;;16.57;66.81
47716;BME280;33476;50.984;3.538;2022-10-16T01:37:16;101026.78;;;16.54;67.13
47716;BME280;33476;50.984;3.538;2022-10-16T01:39:47;101027.00;;;16.51;67.28
47716;BME280;33476;50.984;3.538;2022-10-16T01:42:20;101021.84;;;16.50;67.42
47716;BME280;33476;50.984;3.538;2022-10-16T01:44:47;101019.94;;;16.52;67.49
47716;BME280;33476;50.984;3.538;2022-10-16T01:47:14;101029.41;;;16.54;67.46
47716;BME280;33476;50.984;3.538;2022-10-16T01:49:41;101024.38;;;16.51;67.73
47716;BME280;33476;50.984;3.538;2022-10-16T01:52:15;101021.84;;;16.50;67.77
47716;BME280;33476;50.984;3.538;2022-10-16T01:54:44;101032.81;;;16.56;67.45
47716;BME280;33476;50.984;3.538;2022-10-16T01:57:13;101037.97;;;16.58;67.40
47716;BME280;33476;50.984;3.538;2022-10-16T01:59:45;101031.88;;;16.57;67.50
47716;BME280;33476;50.984;3.538;2022-10-16T02:02:13;101039.78;;;16.57;67.44
47716;BME280;33476;50.984;3.538;2022-10-16T02:04:49;101029.53;;;16.53;67.53
47716;BME280;33476;50.984;3.538;2022-10-16T02:07:18;101033.53;;;16.58;67.37
47716;BME280;33476;50.984;3.538;2022-10-16T02:09:43;101024.56;;;16.61;67.33
47716;BME280;33476;50.984;3.538;2022-10-16T02:12:26;101023.94;;;16.57;67.53
47716;BME280;33476;50.984;3.538;2022-10-16T02:14:52;101018.44;;;16.61;67.29
47716;BME280;33476;50.984;3.538;2022-10-16T02:17:18;101016.53;;;16.63;67.05
47716;BME280;33476;50.984;3.538;2022-10-16T02:19:45;101026.25;;;16.62;67.08
47716;BME280;33476;50.984;3.538;2022-10-16T02:22:28;101021.84;;;16.50;67.64
47716;BME280;33476;50.984;3.538;2022-10-16T02:27:37;101032.72;;;16.58;67.25
47716;BME280;33476;50.984;3.538;2022-10-16T02:30:09;101032.81;;;16.56;67.36
47716;BME280;33476;50.984;3.538;2022-10-16T02:32:40;101035.47;;;16.56;67.31
47716;BME280;33476;50.984;3.538;2022-10-16T02:35:08;101037.97;;;16.58;67.40
47716;BME280;33476;50.984;3.538;2022-10-16T02:37:34;101051.16;;;16.58;67.26
47716;BME280;33476;50.984;3.538;2022-10-16T02:40:00;101060.31;;;16.52;67.59
47716;BME280;33476;50.984;3.538;2022-10-16T02:42:37;101057.59;;;16.54;67.54
47716;BME280;33476;50.984;3.538;2022-10-16T02:45:04;101075.31;;;16.52;67.50
47716;BME280;33476;50.984;3.538;2022-10-16T02:47:30;101080.06;;;16.47;67.57
47716;BME280;33476;50.984;3.538;2022-10-16T02:49:55;101074.81;;;16.47;67.78
47716;BME280;33476;50.984;3.538;2022-10-16T02:52:21;101075.41;;;16.50;67.62
47716;BME280;33476;50.984;3.538;2022-10-16T02:54:46;101078.78;;;16.52;67.46
47716;BME280;33476;50.984;3.538;2022-10-16T02:57:12;101071.72;;;16.53;67.47
47716;BME280;33476;50.984;3.538;2022-10-16T02:59:37;101081.97;;;16.57;67.32
47716;BME280;33476;50.984;3.538;2022-10-16T03:02:02;101089.44;;;16.51;67.39
47716;BME280;33476;50.984;3.538;2022-10-16T03:04:28;101093.34;;;16.45;67.51
47716;BME280;33476;50.984;3.538;2022-10-16T03:06:53;101097.75;;;16.45;67.69
47716;BME280;33476;50.984;3.538;2022-10-16T03:09:18;101089.75;;;16.46;67.68
47716;BME280;33476;50.984;3.538;2022-10-16T03:11:44;101084.47;;;16.46;67.47
47716;BME280;33476;50.984;3.538;2022-10-16T03:14:09;101088.72;;;16.49;67.53
47716;BME280;33476;50.984;3.538;2022-10-16T03:16:34;101087.75;;;16.50;67.36
47716;BME280;33476;50.984;3.538;2022-10-16T03:19:00;101090.63;;;16.47;67.40
47716;BME280;33476;50.984;3.538;2022-10-16T03:21:25;101090.69;;;16.45;67.46
47716;BME280;33476;50.984;3.538;2022-10-16T03:23:50;101095.13;;;16.45;67.50
47716;BME280;33476;50.984;3.538;2022-10-16T03:26:16;101091.66;;;16.44;67.54
47716;BME280;33476;50.984;3.538;2022-10-16T03:28:41;101097.88;;;16.43;67.59
47716;BME280;33476;50.984;3.538;2022-10-16T03:31:06;101108.75;;;16.39;67.63
47716;BME280;33476;50.984;3.538;2022-10-16T03:33:32;101112.00;;;16.42;67.57
47716;BME280;33476;50.984;3.538;2022-10-16T03:35:58;101117.28;;;16.42;67.48
47716;BME280;33476;50.984;3.538;2022-10-16T03:38:23;101116.31;;;16.43;67.37
47716;BME280;33476;50.984;3.538;2022-10-16T03:40:48;101124.47;;;16.40;67.46
47716;BME280;33476;50.984;3.538;2022-10-16T03:43:14;101130.47;;;16.42;67.29
47716;BME280;33476;50.984;3.538;2022-10-16T03:45:39;101119.19;;;16.40;67.40
47716;BME280;33476;50.984;3.538;2022-10-16T03:48:05;101117.38;;;16.41;67.23
47716;BME280;33476;50.984;3.538;2022-10-16T03:50:30;101120.97;;;16.40;67.31
47716;BME280;33476;50.984;3.538;2022-10-16T03:52:56;101114.88;;;16.39;67.35
47716;BME280;33476;50.984;3.538;2022-10-16T03:55:21;101120.22;;;16.38;67.37
47716;BME280;33476;50.984;3.538;2022-10-16T03:57:47;101121.06;;;16.38;67.46
47716;BME280;33476;50.984;3.538;2022-10-16T04:00:12;101127.28;;;16.37;67.28
47716;BME280;33476;50.984;3.538;2022-10-16T04:02:38;101132.88;;;16.33;67.45
47716;BME280;33476;50.984;3.538;2022-10-16T04:05:04;101138.16;;;16.33;67.74
47716;BME280;33476;50.984;3.538;2022-10-16T04:07:29;101128.34;;;16.35;67.42
47716;BME280;33476;50.984;3.538;2022-10-16T04:09:55;101129.19;;;16.35;67.42
47716;BME280;33476;50.984;3.538;2022-10-16T04:12:22;101125.91;;;16.32;67.47
47716;BME280;33476;50.984;3.538;2022-10-16T04:14:47;101133.91;;;16.30;67.53
47716;BME280;33476;50.984;3.538;2022-10-16T04:17:13;101145.31;;;16.31;67.44
47716;BME280;33476;50.984;3.538;2022-10-16T04:19:38;101140.78;;;16.33;67.20
47716;BME280;33476;50.984;3.538;2022-10-16T04:22:03;101143.59;;;16.29;67.37
47716;BME280;33476;50.984;3.538;2022-10-16T04:24:29;101146.25;;;16.29;67.39
47716;BME280;33476;50.984;3.538;2022-10-16T04:26:54;101157.56;;;16.32;67.20
47716;BME280;33476;50.984;3.538;2022-10-16T04:29:19;101155.94;;;16.29;67.39
47716;BME280;33476;50.984;3.538;2022-10-16T04:31:45;101150.03;;;16.25;67.50
47716;BME280;33476;50.984;3.538;2022-10-16T04:34:10;101148.25;;;16.26;67.38
47716;BME280;33476;50.984;3.538;2022-10-16T04:36:35;101142.03;;;16.27;67.31
47716;BME280;33476;50.984;3.538;2022-10-16T04:39:01;101141.28;;;16.25;67.33
47716;BME280;33476;50.984;3.538;2022-10-16T04:41:26;101148.66;;;16.20;67.57
47716;BME280;33476;50.984;3.538;2022-10-16T04:43:51;101156.44;;;16.21;67.59
47716;BME280;33476;50.984;3.538;2022-10-16T04:46:16;101158.16;;;16.22;67.40
47716;BME280;33476;50.984;3.538;2022-10-16T04:48:42;101165.13;;;16.23;67.31
47716;BME280;33476;50.984;3.538;2022-10-16T04:51:07;101168.59;;;16.24;67.39
47716;BME280;33476;50.984;3.538;2022-10-16T04:53:32;101169.00;;;16.18;67.67
47716;BME280;33476;50.984;3.538;2022-10-16T04:55:58;101174.06;;;16.21;67.54
47716;BME280;33476;50.984;3.538;2022-10-16T04:58:23;101173.97;;;16.22;67.54
47716;BME280;33476;50.984;3.538;2022-10-16T05:00:49;101174.06;;;16.21;67.52
47716;BME280;33476;50.984;3.538;2022-10-16T05:03:14;101181.78;;;16.24;67.43
47716;BME280;33476;50.984;3.538;2022-10-16T05:05:44;101187.16;;;16.22;67.56
47716;BME280;33476;50.984;3.538;2022-10-16T05:08:10;101191.38;;;16.25;67.47
47716;BME280;33476;50.984;3.538;2022-10-16T05:10:35;101206.34;;;16.24;67.61
47716;BME280;33476;50.984;3.538;2022-10-16T05:13:01;101201.81;;;16.26;67.65
47716;BME280;33476;50.984;3.538;2022-10-16T05:15:26;101211.50;;;16.26;67.68
47716;BME280;33476;50.984;3.538;2022-10-16T05:17:53;101211.50;;;16.26;67.80
47716;BME280;33476;50.984;3.538;2022-10-16T05:20:19;101217.84;;;16.23;67.95
47716;BME280;33476;50.984;3.538;2022-10-16T05:22:44;101215.38;;;16.20;68.14
47716;BME280;33476;50.984;3.538;2022-10-16T05:25:10;101212.66;;;16.22;68.13
47716;BME280;33476;50.984;3.538;2022-10-16T05:27:36;101226.75;;;16.21;68.15
47716;BME280;33476;50.984;3.538;2022-10-16T05:30:01;101223.28;;;16.20;68.23
47716;BME280;33476;50.984;3.538;2022-10-16T05:32:27;101231.19;;;16.20;68.31
47716;BME280;33476;50.984;3.538;2022-10-16T05:34:52;101237.41;;;16.19;68.44
47716;BME280;33476;50.984;3.538;2022-10-16T05:37:17;101237.97;;;16.24;68.25
47716;BME280;33476;50.984;3.538;2022-10-16T05:39:43;101241.44;;;16.25;68.16
47716;BME280;33476;50.984;3.538;2022-10-16T05:42:08;101238.81;;;16.25;68.29
47716;BME280;33476;50.984;3.538;2022-10-16T05:44:33;101246.63;;;16.26;68.17
47716;BME280;33476;50.984;3.538;2022-10-16T05:46:58;101250.19;;;16.25;68.09
47716;BME280;33476;50.984;3.538;2022-10-16T05:49:24;101255.69;;;16.22;68.26
47716;BME280;33476;50.984;3.538;2022-10-16T05:51:49;101262.06;;;16.18;68.34
47716;BME280;33476;50.984;3.538;2022-10-16T05:54:15;101260.50;;;16.16;68.46
47716;BME280;33476;50.984;3.538;2022-10-16T05:56:40;101263.75;;;16.19;68.38
47716;BME280;33476;50.984;3.538;2022-10-16T05:59:05;101264.50;;;16.21;68.29
47716;BME280;33476;50.984;3.538;2022-10-16T06:01:31;101266.13;;;16.24;68.18
47716;BME280;33476;50.984;3.538;2022-10-16T06:03:57;101273.06;;;16.25;67.95
47716;BME280;33476;50.984;3.538;2022-10-16T06:06:26;101273.28;;;16.22;68.06
47716;BME280;33476;50.984;3.538;2022-10-16T06:08:53;101274.13;;;16.22;68.08
47716;BME280;33476;50.984;3.538;2022-10-16T06:11:21;101279.78;;;16.16;68.16
47716;BME280;33476;50.984;3.538;2022-10-16T06:13:54;101281.00;;;16.11;68.58
47716;BME280;33476;50.984;3.538;2022-10-16T06:16:22;101285.22;;;16.13;68.46
47716;BME280;33476;50.984;3.538;2022-10-16T06:18:47;101290.50;;;16.13;68.42
47716;BME280;33476;50.984;3.538;2022-10-16T06:21:20;101293.34;;;16.10;68.49
47716;BME280;33476;50.984;3.538;2022-10-16T06:23:47;101286.00;;;16.15;68.03
47716;BME280;33476;50.984;3.538;2022-10-16T06:26:15;101294.75;;;16.16;68.17
47716;BME280;33476;50.984;3.538;2022-10-16T06:28:41;101298.13;;;16.18;68.10
47716;BME280;33476;50.984;3.538;2022-10-16T06:31:07;101295.50;;;16.18;67.97
47716;BME280;33476;50.984;3.538;2022-10-16T06:33:34;101304.34;;;16.17;68.18
47716;BME280;33476;50.984;3.538;2022-10-16T06:36:06;101302.66;;;16.16;67.97
47716;BME280;33476;50.984;3.538;2022-10-16T06:38:34;101304.03;;;16.21;67.81
47716;BME280;33476;50.984;3.538;2022-10-16T06:41:01;101311.03;;;16.22;67.79
47716;BME280;33476;50.984;3.538;2022-10-16T06:43:28;101314.41;;;16.24;67.82
47716;BME280;33476;50.984;3.538;2022-10-16T06:45:57;101322.00;;;16.29;67.47
47716;BME280;33476;50.984;3.538;2022-10-16T06:48:23;101328.97;;;16.30;67.61
47716;BME280;33476;50.984;3.538;2022-10-16T06:50:56;101332.13;;;16.22;67.75
47716;BME280;33476;50.984;3.538;2022-10-16T06:53:22;101338.41;;;16.20;67.97
47716;BME280;33476;50.984;3.538;2022-10-16T06:55:47;101339.25;;;16.20;67.68
47716;BME280;33476;50.984;3.538;2022-10-16T06:58:13;101344.13;;;16.26;67.75
47716;BME280;33476;50.984;3.538;2022-10-16T07:00:38;101340.44;;;16.29;67.65
47716;BME280;33476;50.984;3.538;2022-10-16T07:03:03;101351.66;;;16.33;67.63
47716;BME280;33476;50.984;3.538;2022-10-16T07:05:29;101361.84;;;16.39;67.20
47716;BME280;33476;50.984;3.538;2022-10-16T07:07:54;101369.31;;;16.45;67.38
47716;BME280;33476;50.984;3.538;2022-10-16T07:10:19;101371.78;;;16.48;67.38
47716;BME280;33476;50.984;3.538;2022-10-16T07:12:45;101376.75;;;16.52;67.41
47716;BME280;33476;50.984;3.538;2022-10-16T07:15:10;101374.84;;;16.54;67.28
47716;BME280;33476;50.984;3.538;2022-10-16T07:17:36;101374.69;;;16.57;67.13
47716;BME280;33476;50.984;3.538;2022-10-16T07:20:01;101378.38;;;16.55;67.16
47716;BME280;33476;50.984;3.538;2022-10-16T07:22:28;101391.56;;;16.55;67.25
47716;BME280;33476;50.984;3.538;2022-10-16T07:24:53;101390.13;;;16.64;67.11
47716;BME280;33476;50.984;3.538;2022-10-16T07:27:19;101399.25;;;16.72;66.79
47716;BME280;33476;50.984;3.538;2022-10-16T07:29:47;101404.69;;;16.83;66.60
47716;BME280;33476;50.984;3.538;2022-10-16T07:32:12;101409.34;;;16.93;66.43
47716;BME280;33476;50.984;3.538;2022-10-16T07:34:38;101409.59;;;17.02;65.96
47716;BME280;33476;50.984;3.538;2022-10-16T07:37:03;101410.78;;;17.11;65.81
47716;BME280;33476;50.984;3.538;2022-10-16T07:39:28;101410.50;;;17.16;65.83
47716;BME280;33476;50.984;3.538;2022-10-16T07:41:54;101416.06;;;17.11;65.91
47716;BME280;33476;50.984;3.538;2022-10-16T07:44:19;101423.59;;;17.17;65.41
47716;BME280;33476;50.984;3.538;2022-10-16T07:46:44;101428.88;;;17.17;65.56
47716;BME280;33476;50.984;3.538;2022-10-16T07:49:10;101432.13;;;17.21;65.55
47716;BME280;33476;50.984;3.538;2022-10-16T07:51:35;101428.13;;;17.28;65.55
47716;BME280;33476;50.984;3.538;2022-10-16T07:54:00;101429.75;;;17.30;65.18
47716;BME280;33476;50.984;3.538;2022-10-16T07:56:26;101430.78;;;17.28;65.39
47716;BME280;33476;50.984;3.538;2022-10-16T07:58:52;101441.91;;;17.33;65.39
47716;BME280;33476;50.984;3.538;2022-10-16T08:01:18;101438.75;;;17.40;65.08
47716;BME280;33476;50.984;3.538;2022-10-16T08:03:51;101443.72;;;17.45;65.13
47716;BME280;33476;50.984;3.538;2022-10-16T08:06:18;101434.97;;;17.57;64.83
47716;BME280;33476;50.984;3.538;2022-10-16T08:08:43;101444.69;;;17.69;64.55
47716;BME280;33476;50.984;3.538;2022-10-16T08:11:09;101453.75;;;17.80;63.97
47716;BME280;33476;50.984;3.538;2022-10-16T08:13:34;101453.00;;;17.90;64.06
47716;BME280;33476;50.984;3.538;2022-10-16T08:16:00;101453.75;;;17.92;63.86
47716;BME280;33476;50.984;3.538;2022-10-16T08:18:26;101454.06;;;17.88;63.99
47716;BME280;33476;50.984;3.538;2022-10-16T08:20:59;101451.50;;;17.86;64.08
47716;BME280;33476;50.984;3.538;2022-10-16T08:23:25;101456.09;;;17.97;63.66
47716;BME280;33476;50.984;3.538;2022-10-16T08:25:52;101463.91;;;17.99;63.76
47716;BME280;33476;50.984;3.538;2022-10-16T08:28:18;101464.75;;;17.99;63.56
47716;BME280;33476;50.984;3.538;2022-10-16T08:30:44;101465.03;;;17.94;63.58
47716;BME280;33476;50.984;3.538;2022-10-16T08:33:09;101461.56;;;17.94;63.67
47716;BME280;33476;50.984;3.538;2022-10-16T08:35:34;101471.94;;;17.97;63.74
47716;BME280;33476;50.984;3.538;2022-10-16T08:38:00;101470.66;;;18.03;63.16
47716;BME280;33476;50.984;3.538;2022-10-16T08:40:29;101470.13;;;18.10;63.13
47716;BME280;33476;50.984;3.538;2022-10-16T08:48:17;101472.50;;;18.64;61.55
47716;BME280;33476;50.984;3.538;2022-10-16T08:50:45;101472.78;;;18.85;61.15
47716;BME280;33476;50.984;3.538;2022-10-16T08:53:17;101474.84;;;19.05;60.74
47716;BME280;33476;50.984;3.538;2022-10-16T08:55:49;101471.16;;;19.19;60.28
47716;BME280;33476;50.984;3.538;2022-10-16T08:58:21;101473.63;;;19.33;60.16
47716;BME280;33476;50.984;3.538;2022-10-16T09:00:54;101482.84;;;19.52;59.20
47716;BME280;33476;50.984;3.538;2022-10-16T09:03:42;101487.88;;;19.68;59.01
47716;BME280;33476;50.984;3.538;2022-10-16T09:06:47;101494.22;;;19.89;58.56
47716;BME280;33476;50.984;3.538;2022-10-16T09:09:28;101492.09;;;20.05;58.18
47716;BME280;33476;50.984;3.538;2022-10-16T09:23:17;101503.94;;;20.68;56.32
47716;BME280;33476;50.984;3.538;2022-10-16T09:25:47;101497.53;;;20.82;55.65
47716;BME280;33476;50.984;3.538;2022-10-16T09:28:13;101504.28;;;20.86;55.46
47716;BME280;33476;50.984;3.538;2022-10-16T09:30:39;101499.53;;;21.01;55.31
47716;BME280;33476;50.984;3.538;2022-10-16T09:33:06;101499.66;;;21.11;54.67
47716;BME280;33476;50.984;3.538;2022-10-16T09:35:42;101497.78;;;21.22;54.93
47716;BME280;33476;50.984;3.538;2022-10-16T09:38:08;101499.66;;;21.43;54.35
47716;BME280;33476;50.984;3.538;2022-10-16T09:40:37;101498.94;;;21.52;53.94
47716;BME280;33476;50.984;3.538;2022-10-16T09:43:16;101504.56;;;21.58;53.74
47716;BME280;33476;50.984;3.538;2022-10-16T09:46:00;101515.59;;;21.75;53.83
47716;BME280;33476;50.984;3.538;2022-10-16T09:48:49;101514.56;;;21.87;53.59
47716;BME280;33476;50.984;3.538;2022-10-16T09:51:33;101511.97;;;21.97;53.04
47716;BME280;33476;50.984;3.538;2022-10-16T09:56:36;101526.31;;;22.05;52.67
47716;BME280;33476;50.984;3.538;2022-10-16T09:59:20;101517.75;;;22.02;52.79
47716;BME280;33476;50.984;3.538;2022-10-16T10:01:53;101510.44;;;22.15;52.50
47716;BME280;33476;50.984;3.538;2022-10-16T10:04:21;101512.75;;;22.29;52.28
47716;BME280;33476;50.984;3.538;2022-10-16T10:06:48;101506.63;;;22.38;51.94
47716;BME280;33476;50.984;3.538;2022-10-16T10:09:37;101502.59;;;22.44;51.50
47716;BME280;33476;50.984;3.538;2022-10-16T10:12:18;101514.84;;;22.66;51.38
47716;BME280;33476;50.984;3.538;2022-10-16T10:14:49;101514.50;;;22.80;50.51
47716;BME280;33476;50.984;3.538;2022-10-16T10:17:18;101519.25;;;22.77;50.33
47716;BME280;33476;50.984;3.538;2022-10-16T10:19:57;101519.19;;;22.67;50.48
47716;BME280;33476;50.984;3.538;2022-10-16T10:28:15;101530.41;;;22.61;50.21
47716;BME280;33476;50.984;3.538;2022-10-16T10:39:12;101529.19;;;23.15;49.03
47716;BME280;33476;50.984;3.538;2022-10-16T10:44:59;101527.25;;;23.46;48.30
47716;BME280;33476;50.984;3.538;2022-10-16T10:47:47;101528.78;;;23.48;47.95
47716;BME280;33476;50.984;3.538;2022-10-16T10:58:15;101525.97;;;23.40;47.38
47716;BME280;33476;50.984;3.538;2022-10-16T11:01:12;101529.63;;;23.49;46.99
47716;BME280;33476;50.984;3.538;2022-10-16T11:06:36;101515.34;;;23.79;46.20
47716;BME280;33476;50.984;3.538;2022-10-16T11:09:13;101517.72;;;23.82;45.18
47716;BME280;33476;50.984;3.538;2022-10-16T11:11:48;101526.56;;;23.53;45.38
47716;BME280;33476;50.984;3.538;2022-10-16T11:14:41;101529.88;;;23.17;46.32
47716;BME280;33476;50.984;3.538;2022-10-16T11:17:19;101532.38;;;22.99;46.28
47716;BME280;33476;50.984;3.538;2022-10-16T11:22:23;101532.50;;;22.67;46.94
47716;BME280;33476;50.984;3.538;2022-10-16T11:25:15;101537.84;;;22.67;47.18
47716;BME280;33476;50.984;3.538;2022-10-16T11:27:52;101537.31;;;22.73;46.96
47716;BME280;33476;50.984;3.538;2022-10-16T11:30:23;101531.72;;;22.76;47.51
47716;BME280;33476;50.984;3.538;2022-10-16T11:32:54;101534.66;;;22.73;47.69
47716;BME280;33476;50.984;3.538;2022-10-16T11:38:26;101525.34;;;22.88;47.86
47716;BME280;33476;50.984;3.538;2022-10-16T11:40:58;101522.44;;;23.01;47.31
47716;BME280;33476;50.984;3.538;2022-10-16T11:43:29;101517.69;;;23.14;47.04
47716;BME280;33476;50.984;3.538;2022-10-16T11:45:58;101523.16;;;23.22;46.95
47716;BME280;33476;50.984;3.538;2022-10-16T11:48:37;101523.00;;;23.24;46.13
47716;BME280;33476;50.984;3.538;2022-10-16T11:57:07;101519.34;;;22.96;46.58
47716;BME280;33476;50.984;3.538;2022-10-16T12:02:26;101528.84;;;22.89;46.08
47716;BME280;33476;50.984;3.538;2022-10-16T12:08:34;101538.09;;;22.85;46.42
47716;BME280;33476;50.984;3.538;2022-10-16T12:10:42;101546.13;;;23.04;46.65
47716;BME280;33476;50.984;3.538;2022-10-16T12:13:31;101547.78;;;22.95;46.10
47716;BME280;33476;50.984;3.538;2022-10-16T12:18:44;101524.97;;;23.03;45.95
47716;BME280;33476;50.984;3.538;2022-10-16T12:21:11;101526.78;;;22.92;45.47
47716;BME280;33476;50.984;3.538;2022-10-16T12:23:47;101529.06;;;22.76;46.13
47716;BME280;33476;50.984;3.538;2022-10-16T12:26:13;101539.50;;;22.89;46.24
47716;BME280;33476;50.984;3.538;2022-10-16T12:28:39;101541.31;;;22.88;45.97
47716;BME280;33476;50.984;3.538;2022-10-16T12:31:07;101529.19;;;22.75;45.98
47716;BME280;33476;50.984;3.538;2022-10-16T12:33:56;101529.66;;;22.49;46.95
47716;BME280;33476;50.984;3.538;2022-10-16T12:36:35;101524.97;;;22.41;47.14
47716;BME280;33476;50.984;3.538;2022-10-16T12:39:00;101519.25;;;22.36;47.40
47716;BME280;33476;50.984;3.538;2022-10-16T12:41:33;101517.94;;;22.31;47.63
47716;BME280;33476;50.984;3.538;2022-10-16T12:44:00;101514.47;;;22.40;46.85
47716;BME280;33476;50.984;3.538;2022-10-16T12:51:39;101521.84;;;22.27;47.17
47716;BME280;33476;50.984;3.538;2022-10-16T12:54:13;101526.56;;;22.23;46.82
47716;BME280;33476;50.984;3.538;2022-10-16T12:56:56;101527.84;;;22.19;47.05
47716;BME280;33476;50.984;3.538;2022-10-16T12:59:32;101523.78;;;22.25;47.38
47716;BME280;33476;50.984;3.538;2022-10-16T13:02:24;101515.56;;;22.28;47.52
47716;BME280;33476;50.984;3.538;2022-10-16T13:05:23;101520.13;;;22.26;47.31
47716;BME280;33476;50.984;3.538;2022-10-16T13:16:04;101530.59;;;21.97;47.73
47716;BME280;33476;50.984;3.538;2022-10-16T13:18:35;101516.44;;;21.96;47.82
47716;BME280;33476;50.984;3.538;2022-10-16T13:23:59;101514.09;;;21.82;48.76
47716;BME280;33476;50.984;3.538;2022-10-16T13:26:49;101520.69;;;21.78;48.98
47716;BME280;33476;50.984;3.538;2022-10-16T13:29:18;101526.56;;;21.81;49.12
47716;BME280;33476;50.984;3.538;2022-10-16T13:31:44;101525.59;;;21.82;48.60
47716;BME280;33476;50.984;3.538;2022-10-16T13:34:19;101507.44;;;21.87;48.61
47716;BME280;33476;50.984;3.538;2022-10-16T13:36:48;101503.03;;;21.98;48.69
47716;BME280;33476;50.984;3.538;2022-10-16T13:39:26;101505.09;;;21.94;48.48
47716;BME280;33476;50.984;3.538;2022-10-16T13:42:00;101505.47;;;21.90;48.55
47716;BME280;33476;50.984;3.538;2022-10-16T13:44:27;101510.59;;;21.81;48.69
47716;BME280;33476;50.984;3.538;2022-10-16T13:46:59;101514.69;;;21.65;49.36
47716;BME280;33476;50.984;3.538;2022-10-16T13:49:25;101514.81;;;21.63;49.69
47716;BME280;33476;50.984;3.538;2022-10-16T13:51:58;101507.22;;;21.58;49.46
47716;BME280;33476;50.984;3.538;2022-10-16T13:54:25;101508.06;;;21.59;49.26
47716;BME280;33476;50.984;3.538;2022-10-16T13:56:52;101504.97;;;21.54;49.34
47716;BME280;33476;50.984;3.538;2022-10-16T13:59:34;101506.44;;;21.47;49.19
47716;BME280;33476;50.984;3.538;2022-10-16T14:02:05;101522.16;;;21.39;49.00
47716;BME280;33476;50.984;3.538;2022-10-16T14:04:33;101514.47;;;21.36;48.89
47716;BME280;33476;50.984;3.538;2022-10-16T14:06:58;101515.75;;;21.41;48.89
47716;BME280;33476;50.984;3.538;2022-10-16T14:09:26;101515.88;;;21.40;48.57
47716;BME280;33476;50.984;3.538;2022-10-16T14:11:59;101516.72;;;21.40;48.23
47716;BME280;33476;50.984;3.538;2022-10-16T14:14:27;101509.16;;;21.36;48.50
47716;BME280;33476;50.984;3.538;2022-10-16T14:16:59;101507.56;;;21.33;49.00
47716;BME280;33476;50.984;3.538;2022-10-16T14:19:27;101516.38;;;21.34;49.05
47716;BME280;33476;50.984;3.538;2022-10-16T14:21:53;101520.84;;;21.33;49.11
47716;BME280;33476;50.984;3.538;2022-10-16T14:24:30;101524.94;;;21.26;49.36
47716;BME280;33476;50.984;3.538;2022-10-16T14:26:57;101530.91;;;21.29;49.31
47716;BME280;33476;50.984;3.538;2022-10-16T14:29:25;101516.03;;;21.16;49.06
47716;BME280;33476;50.984;3.538;2022-10-16T14:35:27;101524.75;;;21.07;49.38
47716;BME280;33476;50.984;3.538;2022-10-16T14:37:55;101524.00;;;21.16;48.87
47716;BME280;33476;50.984;3.538;2022-10-16T14:40:26;101529.44;;;21.14;49.04
47716;BME280;33476;50.984;3.538;2022-10-16T14:42:52;101516.44;;;21.11;48.88
47716;BME280;33476;50.984;3.538;2022-10-16T14:45:23;101514.53;;;21.02;48.79